Time;durP1;ratioP1;P1;durP2;ratioP2;P2;SDS_P1;SDS_P2;PMS_P1;PMS_P2;Temp;Humidity;BMP_temperature;BMP_pressure;BME280_temperature;BME280_humidity;BME280_pressure;Samples;Min_cycle;Max_cycle;Signal;HPM_P1;HPM_P2
2021/03/19 00:04:31;;;;;;;46.50;19.57;;;;;;;2.00;78.68;100818.19;8973296;32;20228;-74
2021/03/19 00:09:35;;;;;;;38.30;17.27;;;;;;;1.81;78.76;100818.03;8978120;32;20251;-73
2021/03/19 00:14:37;;;;;;;36.60;15.73;;;;;;;1.62;78.95;100823.13;8978820;32;20270;-74
2021/03/19 00:19:39;;;;;;;36.80;16.50;;;;;;;1.56;79.17;100826.88;8978338;32;20224;-74
2021/03/19 00:24:42;;;;;;;34.23;14.27;;;;;;;1.59;78.79;100826.78;8978303;32;20224;-74
2021/03/19 00:29:44;;;;;;;24.83;12.80;;;;;;;1.50;78.60;100838.56;8978171;32;20252;-73
2021/03/19 00:34:47;;;;;;;28.00;13.97;;;;;;;1.48;78.71;100842.19;8952085;32;20729;-73
2021/03/19 00:39:50;;;;;;;27.87;13.23;;;;;;;1.40;78.63;100846.88;8951729;32;20756;-72
2021/03/19 00:44:52;;;;;;;29.93;12.97;;;;;;;1.29;78.25;100849.94;8977650;32;20238;-72
2021/03/19 00:49:54;;;;;;;31.77;13.07;;;;;;;1.16;78.34;100840.69;8951899;32;20235;-72
2021/03/19 00:54:57;;;;;;;29.90;14.13;;;;;;;1.08;78.49;100834.81;8950475;32;20226;-73
2021/03/19 01:00:00;;;;;;;33.73;15.50;;;;;;;0.98;78.48;100836.88;8916299;32;20635;-73
2021/03/19 01:05:03;;;;;;;30.70;15.23;;;;;;;0.90;78.11;100837.13;8916542;32;20225;-72
2021/03/19 01:10:10;;;;;;;31.87;14.30;;;;;;;0.84;78.32;100832.06;8916246;32;20221;-72
2021/03/19 01:15:14;;;;;;;32.47;14.90;;;;;;;0.72;78.34;100838.63;8916341;32;20225;-73
2021/03/19 01:20:18;;;;;;;31.50;14.03;;;;;;;0.64;78.04;100839.81;8915779;32;20874;-73
2021/03/19 01:25:25;;;;;;;34.03;15.07;;;;;;;0.53;78.56;100835.72;8915663;32;20318;-73
2021/03/19 01:30:33;;;;;;;36.63;15.60;;;;;;;0.49;78.77;100841.13;8914739;32;20220;-73
2021/03/19 01:35:39;;;;;;;41.57;15.47;;;;;;;0.43;78.76;100836.91;8915525;32;20253;-73
2021/03/19 01:40:45;;;;;;;35.43;15.50;;;;;;;0.34;78.27;100842.50;8902380;32;20222;-73
2021/03/19 01:46:43;;;;;;;30.70;14.80;;;;;;;0.28;78.64;100846.19;8914981;32;20230;-73
2021/03/19 01:52:42;;;;;;;36.53;15.40;;;;;;;0.30;78.24;100854.97;8914446;32;20225;-73
2021/03/19 01:58:48;;;;;;;34.00;14.80;;;;;;;0.19;78.54;100864.97;8913991;33;20230;-73
2021/03/19 02:04:46;;;;;;;33.67;14.53;;;;;;;0.15;78.43;100860.69;8827278;33;20234;-73
2021/03/19 02:10:44;;;;;;;34.80;15.13;;;;;;;0.10;78.71;100865.25;8888112;33;20228;-73
2021/03/19 02:16:42;;;;;;;38.33;16.00;;;;;;;0.07;78.57;100865.34;8914096;33;20232;-73
2021/03/19 02:22:41;;;;;;;37.93;16.17;;;;;;;0.14;78.02;100883.63;8913422;33;20233;-73
2021/03/19 02:28:39;;;;;;;34.60;15.67;;;;;;;0.18;77.94;100897.59;8839798;33;20935;-73
2021/03/19 02:33:51;;;;;;;35.77;15.23;;;;;;;0.13;77.52;100897.72;8913209;33;20248;-73
2021/03/19 02:38:53;;;;;;;35.17;14.87;;;;;;;0.08;77.38;100901.41;8912987;33;20320;-73
2021/03/19 02:43:55;;;;;;;30.20;15.27;;;;;;;0.01;77.48;100890.16;8912992;33;20279;-73
2021/03/19 02:48:58;;;;;;;39.53;15.97;;;;;;;0.00;77.50;100896.38;8912484;33;20729;-73
2021/03/19 02:54:00;;;;;;;32.80;16.57;;;;;;;-0.03;77.78;100901.72;8912472;32;20225;-72
2021/03/19 02:59:03;;;;;;;36.00;14.67;;;;;;;-0.08;77.84;100909.78;8912696;32;20237;-73
2021/03/19 03:04:06;;;;;;;29.73;14.37;;;;;;;-0.17;77.48;100915.31;8912728;32;20229;-73
2021/03/19 03:09:14;;;;;;;30.00;13.60;;;;;;;-0.23;77.75;100922.56;8911207;32;20221;-73
2021/03/19 03:14:19;;;;;;;30.70;13.33;;;;;;;-0.29;77.72;100936.78;8913419;32;20217;-73
2021/03/19 03:19:23;;;;;;;24.27;12.30;;;;;;;-0.33;77.79;100946.59;8912345;32;20305;-73
2021/03/19 03:24:28;;;;;;;26.57;13.67;;;;;;;-0.39;77.39;100952.00;8912432;32;20277;-73
2021/03/19 03:29:31;;;;;;;28.87;13.00;;;;;;;-0.42;77.54;100952.09;8912929;32;20249;-74
2021/03/19 03:34:35;;;;;;;27.30;13.17;;;;;;;-0.42;77.22;100945.94;8914021;32;20733;-73
2021/03/19 03:39:37;;;;;;;24.20;12.23;;;;;;;-0.46;77.34;100954.88;8912383;32;20637;-73
2021/03/19 03:44:39;;;;;;;25.17;13.90;;;;;;;-0.47;77.11;100969.81;8917946;32;20225;-73
2021/03/19 03:49:42;;;;;;;21.90;12.87;;;;;;;-0.56;77.31;100977.97;8915731;32;20278;-72
2021/03/19 03:54:45;;;;;;;26.53;13.13;;;;;;;-0.62;77.34;100991.34;8941815;32;20265;-75
2021/03/19 03:59:47;;;;;;;26.47;13.20;;;;;;;-0.66;77.24;100995.81;8951611;32;20220;-75
2021/03/19 04:04:50;;;;;;;22.70;11.57;;;;;;;-0.69;77.30;100990.59;8978891;32;20217;-72
2021/03/19 04:09:53;;;;;;;25.33;13.07;;;;;;;-0.69;77.18;100987.09;8977638;32;20229;-74
2021/03/19 04:14:55;;;;;;;24.13;12.03;;;;;;;-0.70;76.92;100988.88;8977571;32;20221;-75
2021/03/19 04:19:59;;;;;;;26.20;11.90;;;;;;;-0.62;77.20;100983.41;8977497;32;20224;-73
2021/03/19 04:25:02;;;;;;;23.97;12.40;;;;;;;-0.64;77.05;100991.34;8977369;32;20228;-74
2021/03/19 04:30:06;;;;;;;21.70;11.43;;;;;;;-0.69;77.10;100990.59;8977152;32;20268;-75
2021/03/19 04:35:11;;;;;;;19.00;11.60;;;;;;;-0.75;76.92;101002.19;8976957;32;20228;-75
2021/03/19 04:40:14;;;;;;;20.67;12.23;;;;;;;-0.81;77.12;100999.69;8976765;32;20221;-75
2021/03/19 04:45:17;;;;;;;21.40;11.77;;;;;;;-0.83;76.83;101014.69;8976754;32;20621;-75
2021/03/19 04:50:21;;;;;;;20.90;11.77;;;;;;;-0.90;76.98;101018.38;8976287;32;20281;-74
2021/03/19 04:55:24;;;;;;;28.57;11.90;;;;;;;-0.96;76.85;101023.78;8944084;32;20282;-74
2021/03/19 05:00:26;;;;;;;21.03;11.80;;;;;;;-1.01;77.06;101030.97;8915876;32;20271;-72
2021/03/19 05:05:33;;;;;;;21.13;11.13;;;;;;;-1.07;77.08;101031.06;8915307;32;20264;-73
2021/03/19 05:10:37;;;;;;;19.80;10.70;;;;;;;-1.06;76.78;101025.78;8913746;32;20799;-74
2021/03/19 05:15:40;;;;;;;16.60;11.10;;;;;;;-1.07;76.82;101042.53;8915199;32;20226;-74
2021/03/19 05:20:43;;;;;;;20.63;11.20;;;;;;;-1.08;76.77;101045.19;8914980;32;20229;-74
2021/03/19 05:25:45;;;;;;;17.87;12.17;;;;;;;-1.12;76.70;101047.03;8914925;32;20224;-75
2021/03/19 05:30:53;;;;;;;18.83;12.00;;;;;;;-1.08;76.61;101055.72;8914228;32;20749;-74
2021/03/19 05:35:57;;;;;;;17.07;10.73;;;;;;;-1.10;76.63;101063.66;8914901;32;20225;-73
2021/03/19 05:40:59;;;;;;;19.17;11.57;;;;;;;-1.10;77.12;101071.56;8914258;32;20821;-74
2021/03/19 05:46:09;;;;;;;16.17;10.10;;;;;;;-1.11;76.72;101075.13;8915068;32;20439;-73
2021/03/19 05:51:32;;;;;;;20.03;11.57;;;;;;;-1.05;76.77;101076.75;8914626;32;20217;-73
2021/03/19 05:56:34;;;;;;;18.00;11.33;;;;;;;-1.00;76.51;101074.88;8974209;32;20212;-72
2021/03/19 06:01:38;;;;;;;17.43;11.13;;;;;;;-0.96;76.39;101080.06;8974445;32;20304;-72
2021/03/19 06:06:56;;;;;;;19.03;11.37;;;;;;;-0.87;76.62;101078.13;8974099;32;20229;-73
2021/03/19 06:12:02;;;;;;;17.27;11.00;;;;;;;-0.80;76.51;101083.19;8974004;32;20223;-73
2021/03/19 06:17:11;;;;;;;18.07;11.07;;;;;;;-0.72;76.25;101088.31;8974116;32;20724;-74
2021/03/19 06:22:24;;;;;;;14.73;10.23;;;;;;;-0.57;76.20;101101.16;8974256;32;20775;-74
2021/03/19 06:27:50;;;;;;;15.43;10.60;;;;;;;-0.33;76.15;101102.34;8975778;32;20267;-73
2021/03/19 06:33:21;;;;;;;17.43;11.73;;;;;;;-0.03;75.70;101109.53;8976259;32;20221;-75
2021/03/19 06:38:35;;;;;;;14.57;10.10;;;;;;;0.28;74.40;101112.25;8976292;32;20878;-75
2021/03/19 06:43:38;;;;;;;11.17;5.67;;;;;;;0.52;74.44;101108.94;8985734;32;20921;-75
2021/03/19 06:48:43;;;;;;;52.03;24.47;;;;;;;1.19;74.00;101111.41;8973383;32;20229;-75
2021/03/19 06:53:56;;;;;;;12.53;7.90;;;;;;;1.64;73.97;101121.44;8961041;32;20233;-74
2021/03/19 06:58:59;;;;;;;8.13;5.57;;;;;;;2.05;73.19;101126.31;8912966;32;20225;-74
2021/03/19 07:04:40;;;;;;;8.47;6.07;;;;;;;2.44;71.77;101139.09;8912496;32;20312;-73
2021/03/19 07:10:04;;;;;;;7.63;6.27;;;;;;;2.58;68.86;101150.16;8872737;32;20292;-73
2021/03/19 07:15:22;;;;;;;8.33;6.10;;;;;;;2.93;69.74;101153.28;8913409;32;20232;-73
2021/03/19 07:21:01;;;;;;;8.88;7.10;;;;;;;3.15;70.98;101162.19;8912130;32;20311;-74
2021/03/19 07:26:11;;;;;;;8.80;6.77;;;;;;;3.21;68.62;101175.25;8913689;32;20233;-74
2021/03/19 07:32:11;;;;;;;8.07;6.33;;;;;;;3.16;67.21;101177.22;8913187;32;20221;-74
2021/03/19 07:37:29;;;;;;;9.13;6.53;;;;;;;3.23;67.88;101177.81;8888533;32;20225;-75
2021/03/19 07:43:05;;;;;;;9.77;7.13;;;;;;;3.48;67.84;101189.25;8911219;32;20328;-74
2021/03/19 07:48:23;;;;;;;10.10;7.13;;;;;;;3.70;67.81;101191.94;8912688;32;20274;-74
2021/03/19 07:53:48;;;;;;;8.03;6.00;;;;;;;3.90;65.64;101200.91;8920896;32;20235;-72
2021/03/19 07:58:59;;;;;;;10.60;6.77;;;;;;;4.20;64.88;101206.78;8972750;32;21415;-73
2021/03/19 08:04:13;;;;;;;9.07;6.27;;;;;;;4.24;64.90;101211.03;8973035;32;20269;-73
2021/03/19 08:09:35;;;;;;;10.30;7.07;;;;;;;4.43;66.06;101213.78;8946923;32;20220;-73
2021/03/19 08:15:15;;;;;;;13.23;7.83;;;;;;;4.78;63.63;101224.72;8972828;32;20231;-73
2021/03/19 08:20:38;;;;;;;10.60;6.17;;;;;;;5.29;61.50;101223.34;8905252;32;20221;-72
2021/03/19 08:25:45;;;;;;;9.60;6.23;;;;;;;5.44;61.77;101232.47;8972718;32;20221;-75
2021/03/19 08:30:55;;;;;;;6.63;5.77;;;;;;;5.86;64.69;101239.38;8977582;32;20236;-75
2021/03/19 08:36:08;;;;;;;8.37;5.53;;;;;;;5.67;59.89;101242.03;8977882;32;20302;-74
2021/03/19 08:41:16;;;;;;;7.27;5.40;;;;;;;5.70;59.89;101256.09;8977344;32;20228;-73
2021/03/19 08:46:26;;;;;;;8.83;4.60;;;;;;;6.04;60.85;101243.81;8977705;32;20236;-73
2021/03/19 08:51:43;;;;;;;5.87;4.53;;;;;;;6.16;58.64;101256.56;8951866;32;20232;-74
2021/03/19 08:56:48;;;;;;;5.60;3.85;;;;;;;6.70;57.65;101261.91;8977349;32;20232;-73
2021/03/19 09:01:55;;;;;;;6.38;4.88;;;;;;;7.29;55.85;101259.75;8977208;32;20235;-74
2021/03/19 09:07:25;;;;;;;4.95;4.45;;;;;;;7.52;53.65;101263.00;8952085;32;20228;-73
2021/03/19 09:12:28;;;;;;;5.90;3.75;;;;;;;7.90;50.87;101266.25;8944216;32;20267;-74
2021/03/19 09:18:08;;;;;;;3.92;3.50;;;;;;;8.05;50.14;101265.38;8976815;32;20225;-74
2021/03/19 09:23:21;;;;;;;4.65;3.70;;;;;;;8.62;47.88;101262.13;8972490;32;20221;-73
2021/03/19 09:28:40;;;;;;;4.95;3.72;;;;;;;9.25;47.45;101274.44;8975961;32;20216;-74
2021/03/19 09:34:14;;;;;;;4.05;3.33;;;;;;;9.23;43.42;101268.31;8976605;32;20239;-73
2021/03/19 09:40:14;;;;;;;6.28;3.08;;;;;;;8.86;41.94;101281.25;8976238;32;20225;-73
2021/03/19 09:45:47;;;;;;;2.83;2.55;;;;;;;8.82;42.43;101279.69;8709516;33;20242;-73
2021/03/19 09:51:01;;;;;;;3.80;3.00;;;;;;;9.19;42.28;101286.41;8923276;32;20306;-74
2021/03/19 09:56:16;;;;;;;2.70;2.45;;;;;;;9.07;42.01;101289.81;8976166;32;20298;-74
2021/03/19 10:01:29;;;;;;;3.38;2.55;;;;;;;9.61;41.34;101284.69;8975352;32;20228;-73
2021/03/19 10:06:36;;;;;;;2.80;2.50;;;;;;;10.16;39.68;101272.28;8897414;32;20240;-74
2021/03/19 10:12:12;;;;;;;2.90;2.42;;;;;;;10.76;38.98;101285.28;8915053;32;20217;-74
2021/03/19 10:17:27;;;;;;;2.30;2.10;;;;;;;10.36;39.40;101279.88;8898292;32;20235;-74
2021/03/19 10:22:39;;;;;;;2.83;2.50;;;;;;;11.12;38.60;101269.44;8979747;32;20246;-74
2021/03/19 10:27:46;;;;;;;4.22;2.33;;;;;;;11.67;39.24;101282.56;8974762;32;20239;-76
2021/03/19 10:32:48;;;;;;;2.42;2.22;;;;;;;12.29;37.36;101283.53;8948906;32;20220;-75
2021/03/19 10:37:59;;;;;;;2.53;1.70;;;;;;;12.14;35.34;101286.34;8974939;32;20221;-76
2021/03/19 10:43:12;;;;;;;3.97;2.00;;;;;;;11.42;36.35;101283.47;8974503;32;20216;-75
2021/03/19 10:48:24;;;;;;;2.60;2.10;;;;;;;11.52;36.93;101299.81;8974764;32;20217;-76
2021/03/19 10:53:50;;;;;;;4.80;2.28;;;;;;;11.90;36.06;101293.50;8965808;32;20221;-74
2021/03/19 10:58:57;;;;;;;2.17;1.88;;;;;;;12.11;36.30;101293.78;8917118;32;20978;-76
2021/03/19 11:04:00;;;;;;;3.35;2.17;;;;;;;11.93;36.35;101279.84;8913488;32;20264;-76
2021/03/19 11:09:18;;;;;;;3.00;2.20;;;;;;;11.76;36.40;101285.56;8913079;32;20252;-74
2021/03/19 11:14:26;;;;;;;3.40;1.90;;;;;;;11.64;35.92;101290.00;8913795;32;20221;-74
2021/03/19 11:19:29;;;;;;;3.70;2.15;;;;;;;12.19;35.05;101291.41;8913727;32;20210;-74
2021/03/19 11:24:36;;;;;;;1.65;1.50;;;;;;;12.39;33.73;101296.19;8913318;32;20232;-74
2021/03/19 11:29:42;;;;;;;1.50;1.40;;;;;;;12.71;34.23;101289.38;8912692;32;20221;-74
2021/03/19 11:34:47;;;;;;;2.00;1.80;;;;;;;11.84;34.22;101283.19;8913453;32;20233;-74
2021/03/19 11:39:58;;;;;;;3.67;2.38;;;;;;;11.77;35.63;101303.47;8915703;32;20220;-74
2021/03/19 11:45:07;;;;;;;1.33;1.23;;;;;;;11.91;34.36;101290.72;8913263;32;20249;-74
2021/03/19 11:50:29;;;;;;;2.92;2.25;;;;;;;13.87;31.25;101301.88;8911525;32;20221;-75
2021/03/19 11:55:36;;;;;;;1.55;1.45;;;;;;;15.52;28.95;101291.69;8946823;32;20236;-76
2021/03/19 12:00:40;;;;;;;1.83;1.50;;;;;;;16.70;28.65;101281.06;8973656;32;20224;-75
2021/03/19 12:05:42;;;;;;;2.25;0.93;;;;;;;17.67;26.47;101291.75;8979302;32;20278;-75
2021/03/19 12:10:45;;;;;;;1.17;1.08;;;;;;;16.88;26.46;101291.19;8978626;32;20224;-75
2021/03/19 12:15:49;;;;;;;2.10;1.25;;;;;;;14.80;28.84;101293.31;8977721;32;20236;-75
2021/03/19 12:20:53;;;;;;;1.15;1.10;;;;;;;15.76;28.52;101293.22;8977627;32;20251;-75
2021/03/19 12:25:56;;;;;;;3.65;1.42;;;;;;;16.84;26.40;101292.44;8978611;32;20236;-73
2021/03/19 12:30:59;;;;;;;1.65;1.10;;;;;;;13.80;28.49;101297.97;8978030;32;20220;-73
2021/03/19 12:36:03;;;;;;;3.60;1.15;;;;;;;15.74;27.11;101306.03;8977777;32;20225;-74
2021/03/19 12:41:06;;;;;;;1.60;1.38;;;;;;;14.27;28.97;101305.88;8951504;32;20224;-73
2021/03/19 12:46:09;;;;;;;1.85;1.30;;;;;;;13.69;29.57;101300.66;8957499;32;20233;-76
2021/03/19 12:51:15;;;;;;;2.67;1.98;;;;;;;12.32;31.25;101304.88;8953395;32;20617;-76
2021/03/19 12:56:18;;;;;;;2.60;1.88;;;;;;;11.19;33.09;101303.00;8931814;32;20218;-76
2021/03/19 13:01:21;;;;;;;3.17;1.40;;;;;;;11.82;31.16;101302.16;8916291;32;20639;-75
2021/03/19 13:06:26;;;;;;;1.33;1.20;;;;;;;12.45;29.74;101280.53;8915917;32;20217;-75
2021/03/19 13:11:29;;;;;;;1.70;1.60;;;;;;;13.46;29.55;101281.72;8915422;32;20603;-75
2021/03/19 13:16:31;;;;;;;3.28;1.50;;;;;;;13.08;29.96;101291.94;8915919;32;20326;-75
2021/03/19 13:21:34;;;;;;;2.75;1.30;;;;;;;12.95;31.00;101284.81;8915749;32;20221;-76
2021/03/19 13:26:40;;;;;;;2.63;1.88;;;;;;;16.63;27.14;101277.19;8915884;32;20233;-75
2021/03/19 13:31:42;;;;;;;2.55;1.95;;;;;;;15.51;28.82;101281.84;8937989;32;20225;-75
2021/03/19 13:36:45;;;;;;;1.65;1.50;;;;;;;16.04;27.68;101278.91;8915124;32;20242;-74
2021/03/19 13:41:48;;;;;;;2.58;2.10;;;;;;;16.45;27.14;101279.72;8913764;32;20224;-74
2021/03/19 13:46:51;;;;;;;2.63;1.80;;;;;;;17.44;26.25;101269.53;8914689;32;20236;-77
2021/03/19 13:51:53;;;;;;;5.55;2.03;;;;;;;16.45;26.29;101273.47;8914198;32;20253;-75
2021/03/19 13:57:01;;;;;;;3.95;2.10;;;;;;;15.09;27.50;101276.44;8965385;32;20225;-75
2021/03/19 14:02:04;;;;;;;2.30;2.10;;;;;;;13.91;29.40;101270.94;8974274;32;20220;-75
2021/03/19 14:07:10;;;;;;;3.28;2.42;;;;;;;10.98;34.06;101291.91;8974476;32;20240;-75
2021/03/19 14:12:13;;;;;;;2.75;2.30;;;;;;;9.49;37.47;101289.00;8974805;32;20228;-76
2021/03/19 14:17:15;;;;;;;3.67;2.88;;;;;;;9.16;39.02;101296.44;8947825;32;20220;-76
2021/03/19 14:22:18;;;;;;;4.22;3.20;;;;;;;9.12;38.46;101295.75;8973431;32;20906;-75
2021/03/19 14:27:21;;;;;;;3.92;3.10;;;;;;;8.55;43.33;101307.16;8947498;32;20228;-76
2021/03/19 14:32:25;;;;;;;3.58;3.25;;;;;;;7.67;46.78;101319.19;8972283;32;21491;-76
2021/03/19 14:37:27;;;;;;;4.82;3.65;;;;;;;6.76;56.44;101320.34;8973766;32;20879;-76
2021/03/19 14:42:31;;;;;;;5.30;4.28;;;;;;;5.98;63.76;101323.25;8973498;32;20262;-76
2021/03/19 14:47:33;;;;;;;6.95;5.97;;;;;;;5.93;68.35;101345.69;8973598;32;20232;-77
2021/03/19 14:52:37;;;;;;;8.10;5.18;;;;;;;6.15;69.68;101332.22;8973319;32;20233;-77
2021/03/19 14:57:41;;;;;;;10.65;4.88;;;;;;;6.33;69.19;101327.78;8913423;32;20276;-76
2021/03/19 15:02:43;;;;;;;5.82;4.93;;;;;;;6.32;68.63;101331.41;8912493;32;20229;-77
2021/03/19 15:07:46;;;;;;;6.50;4.00;;;;;;;6.19;70.05;101338.25;8913258;32;20704;-75
2021/03/19 15:12:50;;;;;;;5.70;4.32;;;;;;;5.88;70.71;101334.38;8912631;32;20213;-75
2021/03/19 15:17:52;;;;;;;7.75;5.30;;;;;;;5.90;69.94;101335.16;8912413;32;20745;-75
2021/03/19 15:22:55;;;;;;;4.88;4.10;;;;;;;5.69;69.16;101350.34;8913496;32;20603;-75
2021/03/19 15:27:58;;;;;;;8.80;5.07;;;;;;;5.09;67.91;101359.22;8912798;32;20237;-75
2021/03/19 15:33:01;;;;;;;6.20;4.78;;;;;;;4.70;70.33;101339.50;8911790;32;20663;-74
2021/03/19 15:38:04;;;;;;;4.63;3.95;;;;;;;4.67;72.99;101342.28;8919615;32;20221;-75
2021/03/19 15:43:08;;;;;;;5.35;3.95;;;;;;;4.92;74.44;101339.47;8921532;32;20721;-74
2021/03/19 15:48:12;;;;;;;7.40;4.60;;;;;;;5.62;75.41;101343.56;8921789;32;20248;-74
2021/03/19 15:53:16;;;;;;;3.90;3.53;;;;;;;7.08;73.51;101341.91;8928032;32;20929;-75
2021/03/19 15:58:21;;;;;;;6.15;4.15;;;;;;;8.16;72.21;101334.34;8983014;32;20760;-75
2021/03/19 16:03:24;;;;;;;3.92;3.03;;;;;;;8.70;68.06;101336.69;8982277;32;20882;-74
2021/03/19 16:08:30;;;;;;;9.18;6.38;;;;;;;8.65;65.49;101326.25;8982705;32;20658;-75
2021/03/19 16:13:33;;;;;;;5.47;4.97;;;;;;;8.49;64.81;101331.59;8956533;32;20220;-74
2021/03/19 16:18:36;;;;;;;5.82;5.32;;;;;;;8.63;65.27;101329.97;8982067;32;20306;-75
2021/03/19 16:23:39;;;;;;;4.55;3.47;;;;;;;7.64;66.68;101340.75;8955734;32;20220;-74
2021/03/19 16:28:42;;;;;;;3.85;3.45;;;;;;;6.79;67.63;101344.22;8981977;32;20221;-74
2021/03/19 16:33:44;;;;;;;4.65;3.63;;;;;;;6.45;68.26;101358.38;8981564;32;20331;-74
2021/03/19 16:38:46;;;;;;;5.15;4.10;;;;;;;6.05;66.05;101378.06;8982467;32;20225;-74
2021/03/19 16:43:50;;;;;;;4.97;3.83;;;;;;;5.13;65.88;101379.47;8982118;32;20720;-75
2021/03/19 16:48:53;;;;;;;4.80;3.60;;;;;;;4.94;67.89;101377.56;8978164;32;20737;-73
2021/03/19 16:53:56;;;;;;;4.90;3.67;;;;;;;4.87;68.94;101376.06;8982185;32;20224;-73
2021/03/19 16:58:59;;;;;;;3.40;2.97;;;;;;;4.91;67.88;101383.03;8951520;32;20213;-74
2021/03/19 17:04:03;;;;;;;4.43;2.95;;;;;;;5.14;69.39;101389.22;8976273;32;20220;-73
2021/03/19 17:09:06;;;;;;;4.85;3.40;;;;;;;4.85;69.50;101391.22;8976910;32;20224;-73
2021/03/19 17:14:09;;;;;;;3.95;3.03;;;;;;;4.64;71.17;101397.47;8976203;32;20233;-74
2021/03/19 17:19:15;;;;;;;6.97;3.20;;;;;;;4.41;71.75;101401.88;8950932;32;20371;-73
2021/03/19 17:24:18;;;;;;;8.77;3.47;;;;;;;4.24;72.25;101410.50;8976196;32;20760;-74
2021/03/19 17:29:23;;;;;;;3.30;3.00;;;;;;;4.09;72.43;101414.63;8975232;32;20236;-73
2021/03/19 17:34:26;;;;;;;4.63;3.73;;;;;;;3.88;72.42;101423.41;8976878;32;20624;-74
2021/03/19 17:39:28;;;;;;;6.13;3.90;;;;;;;3.73;72.59;101432.81;8975785;32;20815;-75
2021/03/19 17:44:31;;;;;;;5.27;3.30;;;;;;;3.69;72.95;101440.00;8975755;32;20227;-74
2021/03/19 17:49:34;;;;;;;5.53;3.40;;;;;;;3.59;73.05;101433.25;8974732;32;20728;-76
2021/03/19 17:54:36;;;;;;;4.43;3.67;;;;;;;3.58;73.21;101446.63;8975158;32;20292;-75
2021/03/19 17:59:40;;;;;;;7.93;4.47;;;;;;;3.54;72.64;101447.63;8973826;32;20217;-74
2021/03/19 18:04:42;;;;;;;11.13;6.10;;;;;;;3.43;73.39;101450.69;8975738;32;20878;-74
2021/03/19 18:09:51;;;;;;;9.67;5.57;;;;;;;3.45;73.35;101451.47;8974806;32;20662;-74
2021/03/19 18:14:54;;;;;;;15.83;10.33;;;;;;;3.47;73.44;101457.63;8975009;32;20227;-74
2021/03/19 18:19:56;;;;;;;19.27;11.33;;;;;;;3.47;73.24;101450.50;8951723;32;20909;-75
2021/03/19 18:25:00;;;;;;;26.57;15.87;;;;;;;3.51;73.32;101469.88;8975084;32;20325;-75
2021/03/19 18:30:05;;;;;;;16.52;11.20;;;;;;;3.47;73.17;101468.25;8974430;32;20240;-74
2021/03/19 18:35:10;;;;;;;13.17;9.47;;;;;;;3.40;73.31;101466.72;8974307;32;20224;-75
2021/03/19 18:40:17;;;;;;;11.50;8.70;;;;;;;3.23;73.17;101483.22;8972481;32;20221;-74
2021/03/19 18:45:20;;;;;;;12.97;8.03;;;;;;;3.11;73.19;101492.47;8973880;32;20229;-74
2021/03/19 18:50:26;;;;;;;12.30;7.53;;;;;;;3.11;73.03;101495.13;8973814;32;20227;-74
2021/03/19 18:55:33;;;;;;;10.80;6.97;;;;;;;3.09;73.56;101488.97;8973869;32;20227;-74
2021/03/19 19:00:39;;;;;;;10.90;7.37;;;;;;;3.10;73.57;101492.50;8973358;32;20224;-75
2021/03/19 19:05:41;;;;;;;12.33;8.00;;;;;;;3.06;73.17;101499.69;8973733;32;20229;-75
2021/03/19 19:10:43;;;;;;;10.70;7.50;;;;;;;3.22;72.46;101495.63;8972811;32;20224;-75
2021/03/19 19:15:47;;;;;;;19.83;9.80;;;;;;;3.20;70.96;101501.91;8948172;32;20248;-75
2021/03/19 19:20:53;;;;;;;9.17;6.10;;;;;;;3.15;68.77;101510.00;8975436;32;20220;-75
2021/03/19 19:25:56;;;;;;;7.53;5.07;;;;;;;3.18;68.76;101501.97;8973778;32;20240;-75
2021/03/19 19:31:00;;;;;;;7.87;4.50;;;;;;;3.12;66.07;101515.41;8973572;32;20233;-74
2021/03/19 19:36:04;;;;;;;5.07;3.03;;;;;;;2.99;64.88;101536.19;8973680;32;20641;-75
2021/03/19 19:41:11;;;;;;;4.17;2.73;;;;;;;3.06;63.32;101528.91;8973135;32;20246;-74
2021/03/19 19:46:17;;;;;;;3.03;2.17;;;;;;;2.61;57.79;101527.63;8973418;32;21373;-74
2021/03/19 19:51:20;;;;;;;1.93;1.80;;;;;;;2.66;56.32;101535.44;8972876;32;20225;-73
2021/03/19 19:56:23;;;;;;;2.63;1.63;;;;;;;2.75;55.88;101552.88;8947116;32;20635;-75
2021/03/19 20:01:30;;;;;;;3.83;2.67;;;;;;;2.69;54.68;101551.28;8972547;32;20228;-75
2021/03/19 20:06:36;;;;;;;2.30;2.03;;;;;;;2.61;52.83;101559.44;8947324;32;20305;-75
2021/03/19 20:11:41;;;;;;;3.13;2.77;;;;;;;2.53;52.38;101574.72;8972506;32;20231;-75
2021/03/19 20:16:44;;;;;;;3.03;2.50;;;;;;;2.51;52.61;101581.81;8972913;32;20713;-75
2021/03/19 20:21:50;;;;;;;2.00;1.90;;;;;;;2.31;52.65;101577.06;8973692;32;20229;-74
2021/03/19 20:26:52;;;;;;;4.73;2.97;;;;;;;2.41;53.28;101582.97;8978315;32;20232;-74
2021/03/19 20:31:57;;;;;;;2.83;2.53;;;;;;;2.43;51.72;101581.16;8978535;32;20281;-74
2021/03/19 20:37:05;;;;;;;5.63;2.67;;;;;;;2.34;51.60;101598.19;8978694;32;20225;-76
2021/03/19 20:42:11;;;;;;;3.77;2.40;;;;;;;2.35;51.98;101601.72;8978120;32;20633;-75
2021/03/19 20:47:30;;;;;;;4.47;1.80;;;;;;;2.25;51.74;101592.25;8978640;32;21511;-74
2021/03/19 20:52:33;;;;;;;3.30;2.17;;;;;;;2.01;51.43;101585.84;8977109;32;20668;-74
2021/03/19 20:57:35;;;;;;;3.37;2.30;;;;;;;1.89;52.64;101600.28;8915155;32;20234;-73
2021/03/19 21:02:39;;;;;;;3.63;2.37;;;;;;;1.67;51.37;101607.88;8915383;32;20230;-74
2021/03/19 21:07:42;;;;;;;4.43;2.30;;;;;;;1.55;51.49;101617.00;8924574;32;20290;-75
2021/03/19 21:12:47;;;;;;;4.37;2.10;;;;;;;1.44;51.06;101621.69;8916039;32;20270;-74
2021/03/19 21:17:50;;;;;;;2.50;2.10;;;;;;;1.23;51.05;101623.91;8916505;32;20225;-74
2021/03/19 21:22:53;;;;;;;4.00;3.13;;;;;;;1.25;51.25;101631.81;8915961;32;20232;-75
2021/03/19 21:27:55;;;;;;;4.47;2.50;;;;;;;1.21;51.77;101632.81;8915502;32;20225;-74
2021/03/19 21:32:58;;;;;;;5.40;3.23;;;;;;;1.08;52.30;101637.50;8915107;32;20220;-74
2021/03/19 21:38:04;;;;;;;5.57;3.20;;;;;;;0.92;52.63;101641.38;8915767;32;20228;-74
2021/03/19 21:43:07;;;;;;;2.83;2.03;;;;;;;0.78;53.48;101639.88;8914946;32;20217;-74
2021/03/19 21:48:13;;;;;;;2.67;2.07;;;;;;;0.60;52.33;101654.34;8915199;32;20265;-75
2021/03/19 21:53:17;;;;;;;3.83;2.40;;;;;;;0.69;52.97;101661.25;8921208;32;20256;-74
2021/03/19 21:58:19;;;;;;;3.50;2.53;;;;;;;0.67;53.47;101670.97;8976170;32;20227;-74
2021/03/19 22:03:22;;;;;;;5.73;4.07;;;;;;;0.55;53.56;101674.72;8975195;32;20732;-75
2021/03/19 22:08:28;;;;;;;3.87;2.30;;;;;;;0.40;53.72;101672.34;8986046;32;20225;-74
2021/03/19 22:13:30;;;;;;;3.47;2.10;;;;;;;0.29;53.96;101687.53;8975358;32;20223;-75
2021/03/19 22:18:37;;;;;;;5.80;2.93;;;;;;;0.28;54.32;101684.03;8974972;32;20232;-75
2021/03/19 22:23:39;;;;;;;9.13;3.10;;;;;;;0.25;54.60;101681.44;8974727;32;20216;-73
2021/03/19 22:28:42;;;;;;;4.07;2.67;;;;;;;0.19;54.81;101688.59;8974805;32;20232;-74
2021/03/19 22:33:45;;;;;;;3.10;2.50;;;;;;;0.08;55.06;101689.66;8948696;32;20228;-74
2021/03/19 22:38:47;;;;;;;7.03;3.40;;;;;;;0.00;55.44;101696.84;8975002;32;20228;-75
2021/03/19 22:43:50;;;;;;;5.70;2.93;;;;;;;-0.06;55.85;101705.72;8973999;32;20229;-73
2021/03/19 22:48:53;;;;;;;9.33;4.50;;;;;;;-0.10;56.05;101704.03;8973847;32;20229;-74
2021/03/19 22:53:55;;;;;;;4.07;2.90;;;;;;;-0.16;56.24;101705.91;8973606;32;20220;-74
2021/03/19 22:59:00;;;;;;;6.83;3.80;;;;;;;-0.19;56.11;101709.47;8974258;32;20228;-74
2021/03/19 23:04:06;;;;;;;20.73;6.73;;;;;;;-0.29;56.51;101707.84;8973705;32;20244;-74
2021/03/19 23:09:08;;;;;;;13.63;5.70;;;;;;;-0.32;56.85;101714.03;8974949;32;20224;-74
2021/03/19 23:14:10;;;;;;;22.37;10.10;;;;;;;-0.43;57.93;101715.09;8973576;32;20247;-74
2021/03/19 23:19:14;;;;;;;19.40;7.40;;;;;;;-0.47;58.70;101719.53;8975481;32;20228;-76
2021/03/19 23:24:18;;;;;;;16.37;7.97;;;;;;;-0.61;58.62;101713.56;8973146;32;20233;-76
2021/03/19 23:29:25;;;;;;;12.23;5.77;;;;;;;-0.59;58.49;101717.94;8973319;32;20348;-76
2021/03/19 23:34:28;;;;;;;12.07;6.27;;;;;;;-0.63;58.66;101716.25;8973081;32;20232;-75
2021/03/19 23:39:31;;;;;;;15.00;6.67;;;;;;;-0.71;59.26;101718.13;8974007;32;20216;-75
2021/03/19 23:44:34;;;;;;;14.03;7.00;;;;;;;-0.82;59.17;101712.97;8972656;32;20689;-74
2021/03/19 23:49:37;;;;;;;10.57;5.47;;;;;;;-0.91;59.27;101713.06;8973054;32;20233;-75
2021/03/19 23:54:39;;;;;;;20.43;7.13;;;;;;;-1.09;59.66;101713.31;8972928;32;20232;-75